createdAt,value
2023-07-05T00:01:23.555Z,2.03
2023-07-05T00:03:52.631Z,2.13
2023-07-05T00:06:22.365Z,1.88
2023-07-05T00:08:54.207Z,2.30
2023-07-05T00:11:22.907Z,2.20
2023-07-05T00:13:51.669Z,2.53
2023-07-05T00:16:20.507Z,9.45
2023-07-05T00:18:49.103Z,2.50
2023-07-05T00:21:17.637Z,3.17
2023-07-05T00:23:47.995Z,2.22
2023-07-05T00:26:18.327Z,3.10
2023-07-05T00:28:46.668Z,0.65
2023-07-05T00:31:15.158Z,0.35
2023-07-05T00:33:43.975Z,0.10
2023-07-05T00:36:12.578Z,0.15
2023-07-05T00:38:40.988Z,0.00
2023-07-05T00:41:10.824Z,0.10
2023-07-05T00:43:41.255Z,0.00
2023-07-05T00:46:19.813Z,0.20
2023-07-05T00:48:54.857Z,0.10
2023-07-05T00:53:58.392Z,0.35
2023-07-05T00:56:34.045Z,0.10
2023-07-05T00:59:04.798Z,0.10
2023-07-05T01:01:33.367Z,1.15
2023-07-05T01:04:05.695Z,0.47
2023-07-05T01:06:34.468Z,0.00
2023-07-05T01:09:05.463Z,0.00
2023-07-05T01:11:43.493Z,0.10
2023-07-05T01:14:21.649Z,0.00
2023-07-05T01:16:59.709Z,0.10
2023-07-05T01:19:57.834Z,0.20
2023-07-05T01:22:45.753Z,0.00
2023-07-05T01:25:39.128Z,0.08
2023-07-05T01:28:31.865Z,0.00
2023-07-05T01:31:40.577Z,0.03
2023-07-05T01:34:17.464Z,0.03
2023-07-05T01:36:47.086Z,0.10
2023-07-05T01:39:17.228Z,0.77
2023-07-05T01:41:46.486Z,0.00
2023-07-05T01:44:16.908Z,0.05
2023-07-05T01:46:54.909Z,0.00
2023-07-05T01:49:50.974Z,0.10
2023-07-05T01:52:35.948Z,0.00
2023-07-05T01:55:10.802Z,0.03
2023-07-05T01:57:43.141Z,0.00
2023-07-05T02:00:17.515Z,0.10
2023-07-05T02:02:53.862Z,0.00
2023-07-05T02:05:24.211Z,0.00
2023-07-05T02:07:54.250Z,0.45
2023-07-05T02:10:25.268Z,0.00
2023-07-05T02:12:55.192Z,0.13
2023-07-05T02:15:24.718Z,0.05
2023-07-05T02:17:57.351Z,0.43
2023-07-05T02:20:25.904Z,0.00
2023-07-05T02:22:58.003Z,0.00
2023-07-05T02:25:28.125Z,0.08
2023-07-05T02:27:56.849Z,0.10
2023-07-05T02:30:28.445Z,0.00
2023-07-05T02:32:59.237Z,0.00
2023-07-05T02:35:28.146Z,0.28
2023-07-05T02:37:56.975Z,0.00
2023-07-05T02:40:25.857Z,0.08
2023-07-05T02:42:54.330Z,0.10
2023-07-05T02:45:22.768Z,0.03
2023-07-05T02:47:51.389Z,0.65
2023-07-05T02:50:22.160Z,0.00
2023-07-05T02:52:50.741Z,0.10
2023-07-05T02:55:19.883Z,0.10
2023-07-05T02:57:48.428Z,0.00
2023-07-05T03:00:19.039Z,0.22
2023-07-05T03:02:47.994Z,0.00
2023-07-05T03:05:16.520Z,0.50
2023-07-05T03:07:47.131Z,0.00
2023-07-05T03:10:15.682Z,0.00
2023-07-05T03:12:44.558Z,0.10
2023-07-05T03:15:14.443Z,0.00
2023-07-05T03:17:43.506Z,0.00
2023-07-05T03:20:13.311Z,0.38
2023-07-05T03:22:44.481Z,0.05
2023-07-05T03:25:15.353Z,0.20
2023-07-05T03:27:44.643Z,0.30
2023-07-05T03:30:14.464Z,0.43
2023-07-05T03:32:45.172Z,0.15
2023-07-05T03:35:14.499Z,0.30
2023-07-05T03:37:44.708Z,0.47
2023-07-05T03:40:15.794Z,2.17
2023-07-05T03:42:44.170Z,2.33
2023-07-05T03:45:13.346Z,2.40
2023-07-05T03:47:42.509Z,2.40
2023-07-05T03:50:12.037Z,2.25
2023-07-05T03:52:40.714Z,2.40
2023-07-05T03:55:10.871Z,2.50
2023-07-05T03:57:43.235Z,2.63
2023-07-05T04:00:12.894Z,2.70
2023-07-05T04:02:44.624Z,2.28
2023-07-05T04:05:15.486Z,3.28
2023-07-05T04:07:44.358Z,3.00
2023-07-05T04:10:14.188Z,2.30
2023-07-05T04:12:44.744Z,1.98
2023-07-05T04:15:13.168Z,2.42
2023-07-05T04:17:41.676Z,2.30
2023-07-05T04:20:12.452Z,3.13
2023-07-05T04:22:42.411Z,2.63
2023-07-05T04:25:12.789Z,4.15
2023-07-05T04:27:46.369Z,2.95
2023-07-05T04:30:16.874Z,3.35
2023-07-05T04:32:45.844Z,3.72
2023-07-05T04:35:14.459Z,3.63
2023-07-05T04:37:42.946Z,3.78
2023-07-05T04:40:13.089Z,3.90
2023-07-05T04:42:41.862Z,3.78
2023-07-05T04:45:13.230Z,3.35
2023-07-05T04:47:41.880Z,3.65
2023-07-05T04:50:11.526Z,3.30
2023-07-05T04:52:40.729Z,2.85
2023-07-05T04:55:11.264Z,3.05
2023-07-05T04:57:43.051Z,2.88
2023-07-05T05:00:14.877Z,2.80
2023-07-05T05:02:43.483Z,3.47
2023-07-05T05:05:12.070Z,3.15
2023-07-05T05:07:40.601Z,3.20
2023-07-05T05:10:10.534Z,2.80
2023-07-05T05:12:39.230Z,3.20
2023-07-05T05:15:09.816Z,2.53
2023-07-05T05:17:39.598Z,3.58
2023-07-05T05:20:10.769Z,3.78
2023-07-05T05:22:39.431Z,2.90
2023-07-05T05:25:09.764Z,3.45
2023-07-05T05:27:38.829Z,3.40
2023-07-05T05:30:08.983Z,3.58
2023-07-05T05:32:37.789Z,3.78
2023-07-05T05:35:08.949Z,3.78
2023-07-05T05:37:37.801Z,3.22
2023-07-05T05:40:07.543Z,3.88
2023-07-05T05:42:37.300Z,3.80
2023-07-05T05:45:07.444Z,3.28
2023-07-05T05:47:36.627Z,3.60
2023-07-05T05:50:06.503Z,3.15
2023-07-05T05:52:36.597Z,3.03
2023-07-05T05:55:07.391Z,3.05
2023-07-05T05:57:36.157Z,2.60
2023-07-05T06:00:07.748Z,2.13
2023-07-05T06:02:36.360Z,2.13
2023-07-05T06:05:08.020Z,2.40
2023-07-05T06:07:38.326Z,2.30
2023-07-05T06:10:09.582Z,2.20
2023-07-05T06:12:43.287Z,1.75
2023-07-05T06:15:14.287Z,2.05
2023-07-05T06:17:44.349Z,1.98
2023-07-05T06:20:15.637Z,1.70
2023-07-05T06:22:50.518Z,2.45
2023-07-05T06:25:19.316Z,2.33
2023-07-05T06:27:48.158Z,1.52
2023-07-05T06:30:16.892Z,2.38
2023-07-05T06:32:46.358Z,1.80
2023-07-05T06:35:17.250Z,1.65
2023-07-05T06:37:47.736Z,1.77
2023-07-05T06:40:17.290Z,2.58
2023-07-05T06:42:45.968Z,2.80
2023-07-05T06:45:18.213Z,2.83
2023-07-05T06:47:48.315Z,2.50
2023-07-05T06:50:18.127Z,2.88
2023-07-05T06:52:48.549Z,3.05
2023-07-05T06:55:17.003Z,5.65
2023-07-05T06:57:46.040Z,3.90
2023-07-05T07:00:16.292Z,3.20
2023-07-05T07:02:44.955Z,3.53
2023-07-05T07:05:14.068Z,3.45
2023-07-05T07:07:43.793Z,4.00
2023-07-05T07:10:14.138Z,3.38
2023-07-05T07:12:43.753Z,3.75
2023-07-05T07:15:12.944Z,3.30
2023-07-05T07:17:41.436Z,3.28
2023-07-05T07:20:11.931Z,2.90
2023-07-05T07:22:40.798Z,3.20
2023-07-05T07:25:11.103Z,3.00
2023-07-05T07:27:41.554Z,3.50
2023-07-05T07:30:10.522Z,3.47
2023-07-05T07:32:40.249Z,3.33
2023-07-05T07:35:11.985Z,3.22
2023-07-05T07:37:40.948Z,3.28
2023-07-05T07:40:11.180Z,3.20
2023-07-05T07:42:46.910Z,3.72
2023-07-05T07:47:44.649Z,2.08
2023-07-05T07:50:14.764Z,2.38
2023-07-05T07:52:44.232Z,3.30
2023-07-05T07:55:14.451Z,2.95
2023-07-05T07:57:44.956Z,3.67
2023-07-05T08:00:14.288Z,3.58
2023-07-05T08:02:42.924Z,3.45
2023-07-05T08:05:16.753Z,2.85
2023-07-05T08:07:46.380Z,3.65
2023-07-05T08:10:15.187Z,2.85
2023-07-05T08:12:45.351Z,3.50
2023-07-05T08:15:14.446Z,3.45
2023-07-05T08:17:43.308Z,4.32
2023-07-05T08:20:14.550Z,3.33
2023-07-05T08:22:42.993Z,3.55
2023-07-05T08:25:13.052Z,3.95
2023-07-05T08:27:41.659Z,3.55
2023-07-05T08:30:13.861Z,3.20
2023-07-05T08:32:42.931Z,2.90
2023-07-05T08:35:11.810Z,3.65
2023-07-05T08:37:40.645Z,3.00
2023-07-05T08:40:13.018Z,2.47
2023-07-05T08:42:52.816Z,3.38
2023-07-05T08:45:31.339Z,2.40
2023-07-05T08:48:04.515Z,1.70
2023-07-05T08:50:39.535Z,2.28
2023-07-05T08:53:15.004Z,2.53
2023-07-05T08:55:50.080Z,2.05
2023-07-05T08:58:24.208Z,2.92
2023-07-05T09:01:08.838Z,2.17
2023-07-05T09:03:38.143Z,2.78
2023-07-05T09:06:17.087Z,2.47
2023-07-05T09:09:07.880Z,2.20
2023-07-05T09:11:52.511Z,1.73
2023-07-05T09:14:29.917Z,2.80
2023-07-05T09:17:05.625Z,1.85
2023-07-05T09:19:49.071Z,2.50
2023-07-05T09:22:22.646Z,1.63
2023-07-05T09:24:51.805Z,2.47
2023-07-05T09:27:25.579Z,1.90
2023-07-05T09:29:59.879Z,1.98
2023-07-05T09:32:37.115Z,1.98
2023-07-05T09:35:08.969Z,2.63
2023-07-05T09:37:38.835Z,2.08
2023-07-05T09:40:18.419Z,1.98
2023-07-05T09:42:54.468Z,2.33
2023-07-05T09:45:24.604Z,1.35
2023-07-05T09:48:00.449Z,1.73
2023-07-05T09:50:29.958Z,1.55
2023-07-05T09:53:02.680Z,1.83
2023-07-05T09:55:34.007Z,1.20
2023-07-05T09:58:02.660Z,1.50
2023-07-05T10:00:37.335Z,1.50
2023-07-05T10:03:12.240Z,1.40
2023-07-05T10:05:52.725Z,1.85
2023-07-05T10:08:27.290Z,1.83
2023-07-05T10:10:55.998Z,1.20
2023-07-05T10:13:32.318Z,1.02
2023-07-05T10:16:06.481Z,1.13
2023-07-05T10:18:38.247Z,1.65
2023-07-05T10:21:10.278Z,1.33
2023-07-05T10:23:38.933Z,1.75
2023-07-05T10:26:11.965Z,1.75
2023-07-05T10:28:47.716Z,1.42
2023-07-05T10:31:32.184Z,1.30
2023-07-05T10:34:23.034Z,1.20
2023-07-05T10:36:53.279Z,1.00
2023-07-05T10:39:25.489Z,1.45
2023-07-05T10:42:00.690Z,1.42
2023-07-05T10:44:39.773Z,1.30
2023-07-05T10:47:10.453Z,1.00
2023-07-05T10:49:41.038Z,1.70
2023-07-05T10:52:17.118Z,1.63
2023-07-05T10:54:54.240Z,0.90
2023-07-05T10:57:29.452Z,1.35
2023-07-05T11:00:02.618Z,1.30
2023-07-05T11:02:40.702Z,1.15
2023-07-05T11:05:23.689Z,1.23
2023-07-05T11:07:58.241Z,0.80
2023-07-05T11:13:00.009Z,1.10
2023-07-05T11:15:29.133Z,1.20
2023-07-05T11:17:59.175Z,1.10
2023-07-05T11:20:51.302Z,1.02
2023-07-05T11:23:54.921Z,1.67
2023-07-05T11:26:38.685Z,0.82
2023-07-05T11:29:47.272Z,2.25
2023-07-05T11:32:17.409Z,1.35
2023-07-05T11:34:51.653Z,0.50
2023-07-05T11:37:42.897Z,1.00
2023-07-05T11:41:01.087Z,0.63
2023-07-05T11:43:43.345Z,0.90
2023-07-05T11:46:51.105Z,0.80
2023-07-05T11:49:37.070Z,1.10
2023-07-05T11:52:22.136Z,1.20
2023-07-05T11:55:02.874Z,0.98
2023-07-05T11:57:36.409Z,1.33
2023-07-05T12:00:16.092Z,1.13
2023-07-05T12:03:00.215Z,0.98
2023-07-05T12:05:33.262Z,1.00
2023-07-05T12:08:10.479Z,1.20
2023-07-05T12:10:43.061Z,1.13
2023-07-05T12:13:22.485Z,1.20
2023-07-05T12:15:52.285Z,1.23
2023-07-05T12:18:20.616Z,1.33
2023-07-05T12:20:51.570Z,1.08
2023-07-05T12:23:22.571Z,1.10
2023-07-05T12:25:57.457Z,1.50
2023-07-05T12:28:29.944Z,1.55
2023-07-05T12:31:00.757Z,1.30
2023-07-05T12:33:35.870Z,1.20
2023-07-05T12:36:09.926Z,1.38
2023-07-05T12:38:40.814Z,0.88
2023-07-05T12:41:18.464Z,1.13
2023-07-05T12:43:47.866Z,1.10
2023-07-05T12:46:18.227Z,1.38
2023-07-05T12:48:48.780Z,1.80
2023-07-05T12:51:21.724Z,1.70
2023-07-05T12:53:50.666Z,1.98
2023-07-05T12:56:26.193Z,2.78
2023-07-05T12:58:57.767Z,1.00
2023-07-05T13:01:33.088Z,1.45
2023-07-05T13:04:03.377Z,1.77
2023-07-05T13:06:37.921Z,1.67
2023-07-05T13:09:08.286Z,1.83
2023-07-05T13:11:39.947Z,1.52
2023-07-05T13:14:26.302Z,2.00
2023-07-05T13:16:58.161Z,1.50
2023-07-05T13:19:43.993Z,1.00
2023-07-05T13:22:19.174Z,1.75
2023-07-05T13:24:49.107Z,1.83
2023-07-05T13:27:22.515Z,1.10
2023-07-05T13:29:51.819Z,1.33
2023-07-05T13:32:25.655Z,1.55
2023-07-05T13:34:54.753Z,1.65
2023-07-05T13:37:27.276Z,1.67
2023-07-05T13:39:59.725Z,1.35
2023-07-05T13:42:30.028Z,1.55
2023-07-05T13:44:59.148Z,1.35
2023-07-05T13:47:27.747Z,1.40
2023-07-05T13:49:58.101Z,1.58
2023-07-05T13:52:29.048Z,1.27
2023-07-05T13:55:00.103Z,1.33
2023-07-05T13:57:30.784Z,1.33
2023-07-05T13:59:59.715Z,1.63
2023-07-05T14:02:35.525Z,1.77
2023-07-05T14:05:06.194Z,1.58
2023-07-05T14:07:35.294Z,1.40
2023-07-05T14:10:03.805Z,1.40
2023-07-05T14:12:35.414Z,1.58
2023-07-05T14:15:04.286Z,1.27
2023-07-05T14:17:34.252Z,1.00
2023-07-05T14:20:03.007Z,1.70
2023-07-05T14:22:31.793Z,1.58
2023-07-05T14:25:00.285Z,2.22
2023-07-05T14:27:28.767Z,2.38
2023-07-05T14:29:59.288Z,1.30
2023-07-05T14:32:28.121Z,1.38
2023-07-05T14:34:57.624Z,2.08
2023-07-05T14:37:26.342Z,1.30
2023-07-05T14:39:55.280Z,1.77
2023-07-05T14:42:23.729Z,2.25
2023-07-05T14:44:53.373Z,1.63
2023-07-05T14:47:25.005Z,2.13
2023-07-05T14:49:53.549Z,1.60
2023-07-05T14:52:22.783Z,2.00
2023-07-05T14:54:51.440Z,1.50
2023-07-05T14:57:19.906Z,1.90
2023-07-05T14:59:48.685Z,1.80
2023-07-05T15:02:22.771Z,1.80
2023-07-05T15:04:54.821Z,1.45
2023-07-05T15:07:25.039Z,1.80
2023-07-05T15:09:54.715Z,1.98
2023-07-05T15:12:26.190Z,1.83
2023-07-05T15:14:55.264Z,1.83
2023-07-05T15:17:23.968Z,1.70
2023-07-05T15:19:56.955Z,1.90
2023-07-05T15:22:26.188Z,2.00
2023-07-05T15:24:54.778Z,1.63
2023-07-05T15:27:25.895Z,1.88
2023-07-05T15:29:56.248Z,1.77
2023-07-05T15:32:25.380Z,1.98
2023-07-05T15:35:00.170Z,1.60
2023-07-05T15:37:29.208Z,1.55
2023-07-05T15:39:57.854Z,1.75
2023-07-05T15:42:26.713Z,1.90
2023-07-05T15:44:55.780Z,2.05
2023-07-05T15:47:24.446Z,2.00
2023-07-05T15:49:55.710Z,2.40
2023-07-05T15:52:25.285Z,2.03
2023-07-05T15:54:53.720Z,2.00
2023-07-05T15:57:23.761Z,1.80
2023-07-05T15:59:59.190Z,1.90
2023-07-05T16:02:32.032Z,1.90
2023-07-05T16:05:03.003Z,2.38
2023-07-05T16:07:32.109Z,1.83
2023-07-05T16:10:00.932Z,2.03
2023-07-05T16:12:29.983Z,2.17
2023-07-05T16:14:58.657Z,1.75
2023-07-05T16:17:27.667Z,2.50
2023-07-05T16:19:56.655Z,1.90
2023-07-05T16:22:27.079Z,2.75
2023-07-05T16:24:56.078Z,2.60
2023-07-05T16:27:24.857Z,2.25
2023-07-05T16:29:53.772Z,1.95
2023-07-05T16:32:22.956Z,2.00
2023-07-05T16:34:52.445Z,2.30
2023-07-05T16:37:21.010Z,2.00
2023-07-05T16:39:51.167Z,1.65
2023-07-05T16:42:20.634Z,2.13
2023-07-05T16:44:49.470Z,2.40
2023-07-05T16:47:18.248Z,1.70
2023-07-05T16:49:47.773Z,1.90
2023-07-05T16:52:17.048Z,1.88
2023-07-05T16:54:45.821Z,1.27
2023-07-05T16:57:16.110Z,1.60
2023-07-05T16:59:44.576Z,1.75
2023-07-05T17:02:13.626Z,1.75
2023-07-05T17:04:42.889Z,2.10
2023-07-05T17:07:11.535Z,2.03
2023-07-05T17:09:43.091Z,1.67
2023-07-05T17:12:17.141Z,2.13
2023-07-05T17:14:48.293Z,1.97
2023-07-05T17:17:18.106Z,1.95
2023-07-05T17:19:49.586Z,2.08
2023-07-05T17:22:19.617Z,1.75
2023-07-05T17:24:48.362Z,1.85
2023-07-05T17:27:17.675Z,2.00
2023-07-05T17:29:47.681Z,1.67
2023-07-05T17:32:16.884Z,1.48
2023-07-05T17:34:46.084Z,1.60
2023-07-05T17:37:15.172Z,2.00
2023-07-05T17:39:45.962Z,1.77
2023-07-05T17:42:15.421Z,2.03
2023-07-05T17:44:44.954Z,1.45
2023-07-05T17:47:15.888Z,1.77
2023-07-05T17:49:46.861Z,2.00
2023-07-05T17:52:16.679Z,1.70
2023-07-05T17:54:46.650Z,1.60
2023-07-05T17:57:18.710Z,2.10
2023-07-05T17:59:49.980Z,2.03
2023-07-05T18:02:20.516Z,2.03
2023-07-05T18:04:51.216Z,1.55
2023-07-05T18:07:20.893Z,1.88
2023-07-05T18:09:51.558Z,1.90
2023-07-05T18:12:21.705Z,2.00
2023-07-05T18:14:50.462Z,1.60
2023-07-05T18:17:24.279Z,1.88
2023-07-05T18:19:53.029Z,1.63
2023-07-05T18:22:22.043Z,1.77
2023-07-05T18:24:50.718Z,1.63
2023-07-05T18:27:21.094Z,1.88
2023-07-05T18:29:49.980Z,1.60
2023-07-05T18:32:21.715Z,1.85
2023-07-05T18:34:52.580Z,1.80
2023-07-05T18:37:21.166Z,2.30
2023-07-05T18:39:49.784Z,1.80
2023-07-05T18:42:18.618Z,1.85
2023-07-05T18:44:52.611Z,1.30
2023-07-05T18:47:23.661Z,1.77
2023-07-05T18:49:52.425Z,1.60
2023-07-05T18:52:21.050Z,1.40
2023-07-05T18:54:50.232Z,2.42
2023-07-05T18:57:23.946Z,1.23
2023-07-05T18:59:54.790Z,1.30
2023-07-05T19:02:24.816Z,1.50
2023-07-05T19:04:55.746Z,1.30
2023-07-05T19:07:26.347Z,1.67
2023-07-05T19:09:55.067Z,1.70
2023-07-05T19:12:23.867Z,1.73
2023-07-05T19:14:52.120Z,1.40
2023-07-05T19:17:21.374Z,1.60
2023-07-05T19:19:52.532Z,1.50
2023-07-05T19:22:22.431Z,1.80
2023-07-05T19:24:53.091Z,1.80
2023-07-05T19:27:21.640Z,1.90
2023-07-05T19:29:50.522Z,1.88
2023-07-05T19:32:19.839Z,1.77
2023-07-05T19:34:49.606Z,1.73
2023-07-05T19:37:20.240Z,1.85
2023-07-05T19:39:49.459Z,1.65
2023-07-05T19:42:18.595Z,1.95
2023-07-05T19:44:49.104Z,2.22
2023-07-05T19:47:18.017Z,1.90
2023-07-05T19:49:47.560Z,2.15
2023-07-05T19:52:16.372Z,2.22
2023-07-05T19:54:47.089Z,1.80
2023-07-05T19:57:16.870Z,1.35
2023-07-05T19:59:46.469Z,1.52
2023-07-05T20:02:17.214Z,1.40
2023-07-05T20:04:47.100Z,1.10
2023-07-05T20:07:16.630Z,1.90
2023-07-05T20:09:47.596Z,1.65
2023-07-05T20:12:20.318Z,1.95
2023-07-05T20:14:50.033Z,1.75
2023-07-05T20:17:20.384Z,1.75
2023-07-05T20:19:50.084Z,1.83
2023-07-05T20:22:19.704Z,2.30
2023-07-05T20:24:50.316Z,1.98
2023-07-05T20:27:19.112Z,1.95
2023-07-05T20:29:48.300Z,1.70
2023-07-05T20:32:20.381Z,2.10
2023-07-05T20:34:50.074Z,2.13
2023-07-05T20:37:21.244Z,2.03
2023-07-05T20:39:55.814Z,1.45
2023-07-05T20:42:28.129Z,1.85
2023-07-05T20:44:58.009Z,2.13
2023-07-05T20:47:27.682Z,2.00
2023-07-05T20:49:56.117Z,1.95
2023-07-05T20:52:26.862Z,1.80
2023-07-05T20:54:57.979Z,2.47
2023-07-05T20:57:27.911Z,2.00
2023-07-05T20:59:58.652Z,2.22
2023-07-05T21:02:28.781Z,2.40
2023-07-05T21:04:59.164Z,2.10
2023-07-05T21:07:31.736Z,1.80
2023-07-05T21:10:01.965Z,2.40
2023-07-05T21:12:30.584Z,1.80
2023-07-05T21:15:00.489Z,2.25
2023-07-05T21:17:29.409Z,2.03
2023-07-05T21:19:58.942Z,1.92
2023-07-05T21:22:31.401Z,1.63
2023-07-05T21:25:03.023Z,1.50
2023-07-05T21:27:33.946Z,1.77
2023-07-05T21:30:02.913Z,1.80
2023-07-05T21:32:31.866Z,1.70
2023-07-05T21:35:02.631Z,2.15
2023-07-05T21:37:31.608Z,1.77
2023-07-05T21:40:02.830Z,1.92
2023-07-05T21:42:33.933Z,2.17
2023-07-05T21:45:02.916Z,1.98
2023-07-05T21:47:33.212Z,1.80
2023-07-05T21:50:06.635Z,3.00
2023-07-05T21:52:35.709Z,2.40
2023-07-05T21:55:06.737Z,2.88
2023-07-05T21:57:36.075Z,2.22
2023-07-05T22:00:08.350Z,1.80
2023-07-05T22:02:37.803Z,2.00
2023-07-05T22:05:07.671Z,2.03
2023-07-05T22:07:36.403Z,1.98
2023-07-05T22:10:07.911Z,1.67
2023-07-05T22:12:36.888Z,2.33
2023-07-05T22:15:07.655Z,1.60
2023-07-05T22:17:36.105Z,1.90
2023-07-05T22:20:11.229Z,2.10
2023-07-05T22:22:39.836Z,1.63
2023-07-05T22:25:10.794Z,1.60
2023-07-05T22:27:40.228Z,1.90
2023-07-05T22:30:12.267Z,2.13
2023-07-05T22:32:44.412Z,2.00
2023-07-05T22:35:15.076Z,1.80
2023-07-05T22:37:43.908Z,2.20
2023-07-05T22:40:16.557Z,1.70
2023-07-05T22:42:46.706Z,2.10
2023-07-05T22:45:17.364Z,1.80
2023-07-05T22:47:46.357Z,1.90
2023-07-05T22:50:16.116Z,2.00
2023-07-05T22:52:45.671Z,2.22
2023-07-05T22:55:17.048Z,1.80
2023-07-05T22:57:46.680Z,1.90
2023-07-05T23:00:23.171Z,2.67
2023-07-05T23:02:53.331Z,1.90
2023-07-05T23:05:22.818Z,1.90
2023-07-05T23:07:51.475Z,1.80
2023-07-05T23:10:21.851Z,2.03
2023-07-05T23:12:50.393Z,2.33
2023-07-05T23:15:23.906Z,2.08
2023-07-05T23:17:54.508Z,1.85
2023-07-05T23:20:24.662Z,1.63
2023-07-05T23:22:53.389Z,1.83
2023-07-05T23:25:23.677Z,1.88
2023-07-05T23:27:52.365Z,1.88
2023-07-05T23:30:21.093Z,2.28
2023-07-05T23:32:50.288Z,2.22
2023-07-05T23:35:19.503Z,2.08
2023-07-05T23:37:48.349Z,2.20
2023-07-05T23:40:17.352Z,1.73
2023-07-05T23:42:47.947Z,2.20
2023-07-05T23:45:16.827Z,2.65
2023-07-05T23:47:45.257Z,2.10
2023-07-05T23:50:14.669Z,1.83
2023-07-05T23:52:43.551Z,2.40
2023-07-05T23:55:12.394Z,2.65
2023-07-05T23:57:40.607Z,2.10
